sensor_id;sensor_type;location;lat;lon;timestamp;P1;durP1;ratioP1;P2;durP2;ratioP2
19414;SDS011;9843;48.882;12.592;2023-03-12T00:01:31;9.60;;;7.97;;
19414;SDS011;9843;48.882;12.592;2023-03-12T00:04:00;10.03;;;9.13;;
19414;SDS011;9843;48.882;12.592;2023-03-12T00:06:27;9.77;;;8.57;;
19414;SDS011;9843;48.882;12.592;2023-03-12T00:08:54;8.90;;;8.10;;
19414;SDS011;9843;48.882;12.592;2023-03-12T00:11:21;10.10;;;7.67;;
19414;SDS011;9843;48.882;12.592;2023-03-12T00:13:48;12.57;;;8.60;;
19414;SDS011;9843;48.882;12.592;2023-03-12T00:16:17;11.00;;;9.30;;
19414;SDS011;9843;48.882;12.592;2023-03-12T00:18:46;10.43;;;9.13;;
19414;SDS011;9843;48.882;12.592;2023-03-12T00:21:13;11.43;;;10.27;;
19414;SDS011;9843;48.882;12.592;2023-03-12T00:23:41;15.13;;;12.17;;
19414;SDS011;9843;48.882;12.592;2023-03-12T00:26:09;11.13;;;9.07;;
19414;SDS011;9843;48.882;12.592;2023-03-12T00:28:36;14.00;;;8.37;;
19414;SDS011;9843;48.882;12.592;2023-03-12T00:31:11;13.27;;;10.63;;
19414;SDS011;9843;48.882;12.592;2023-03-12T00:33:40;13.03;;;11.63;;
19414;SDS011;9843;48.882;12.592;2023-03-12T00:36:07;15.40;;;11.93;;
19414;SDS011;9843;48.882;12.592;2023-03-12T00:38:34;13.53;;;10.50;;
19414;SDS011;9843;48.882;12.592;2023-03-12T00:41:02;12.13;;;10.37;;
19414;SDS011;9843;48.882;12.592;2023-03-12T00:43:29;19.93;;;12.10;;
19414;SDS011;9843;48.882;12.592;2023-03-12T00:45:56;13.07;;;10.40;;
19414;SDS011;9843;48.882;12.592;2023-03-12T00:48:23;13.37;;;12.07;;
19414;SDS011;9843;48.882;12.592;2023-03-12T00:50:51;10.73;;;9.03;;
19414;SDS011;9843;48.882;12.592;2023-03-12T00:53:18;12.60;;;11.30;;
19414;SDS011;9843;48.882;12.592;2023-03-12T00:55:45;18.57;;;12.50;;
19414;SDS011;9843;48.882;12.592;2023-03-12T00:58:12;14.67;;;12.40;;
19414;SDS011;9843;48.882;12.592;2023-03-12T01:00:39;18.87;;;10.50;;
19414;SDS011;9843;48.882;12.592;2023-03-12T01:03:06;16.13;;;12.23;;
19414;SDS011;9843;48.882;12.592;2023-03-12T01:05:33;12.87;;;10.77;;
19414;SDS011;9843;48.882;12.592;2023-03-12T01:08:03;13.30;;;11.87;;
19414;SDS011;9843;48.882;12.592;2023-03-12T01:10:30;14.03;;;10.80;;
19414;SDS011;9843;48.882;12.592;2023-03-12T01:12:58;15.63;;;11.47;;
19414;SDS011;9843;48.882;12.592;2023-03-12T01:15:25;13.70;;;9.80;;
19414;SDS011;9843;48.882;12.592;2023-03-12T01:17:52;11.50;;;9.57;;
19414;SDS011;9843;48.882;12.592;2023-03-12T01:20:19;11.47;;;9.83;;
19414;SDS011;9843;48.882;12.592;2023-03-12T01:22:47;11.03;;;9.20;;
19414;SDS011;9843;48.882;12.592;2023-03-12T01:25:15;15.30;;;10.77;;
19414;SDS011;9843;48.882;12.592;2023-03-12T01:27:42;13.47;;;11.00;;
19414;SDS011;9843;48.882;12.592;2023-03-12T01:30:10;11.60;;;9.53;;
19414;SDS011;9843;48.882;12.592;2023-03-12T01:32:37;13.37;;;10.77;;
19414;SDS011;9843;48.882;12.592;2023-03-12T01:35:04;10.20;;;9.17;;
19414;SDS011;9843;48.882;12.592;2023-03-12T01:37:31;10.60;;;9.40;;
19414;SDS011;9843;48.882;12.592;2023-03-12T01:39:59;10.50;;;9.43;;
19414;SDS011;9843;48.882;12.592;2023-03-12T01:42:27;9.73;;;8.83;;
19414;SDS011;9843;48.882;12.592;2023-03-12T01:44:55;11.17;;;10.07;;
19414;SDS011;9843;48.882;12.592;2023-03-12T01:47:22;10.10;;;8.97;;
19414;SDS011;9843;48.882;12.592;2023-03-12T01:49:50;11.10;;;9.40;;
19414;SDS011;9843;48.882;12.592;2023-03-12T01:52:18;14.17;;;10.13;;
19414;SDS011;9843;48.882;12.592;2023-03-12T01:54:49;18.87;;;12.10;;
19414;SDS011;9843;48.882;12.592;2023-03-12T01:57:19;11.57;;;9.13;;
19414;SDS011;9843;48.882;12.592;2023-03-12T01:59:49;10.17;;;9.13;;
19414;SDS011;9843;48.882;12.592;2023-03-12T02:02:17;14.30;;;9.20;;
19414;SDS011;9843;48.882;12.592;2023-03-12T02:04:50;10.87;;;9.73;;
19414;SDS011;9843;48.882;12.592;2023-03-12T02:07:19;15.87;;;11.00;;
19414;SDS011;9843;48.882;12.592;2023-03-12T02:09:47;13.63;;;11.23;;
19414;SDS011;9843;48.882;12.592;2023-03-12T02:12:15;9.40;;;8.50;;
19414;SDS011;9843;48.882;12.592;2023-03-12T02:14:42;12.03;;;9.67;;
19414;SDS011;9843;48.882;12.592;2023-03-12T02:17:11;12.43;;;10.27;;
19414;SDS011;9843;48.882;12.592;2023-03-12T02:19:41;11.37;;;10.27;;
19414;SDS011;9843;48.882;12.592;2023-03-12T02:22:10;13.53;;;11.90;;
19414;SDS011;9843;48.882;12.592;2023-03-12T02:24:38;15.93;;;11.17;;
19414;SDS011;9843;48.882;12.592;2023-03-12T02:27:09;13.33;;;11.67;;
19414;SDS011;9843;48.882;12.592;2023-03-12T02:29:37;16.33;;;11.13;;
19414;SDS011;9843;48.882;12.592;2023-03-12T02:32:06;15.37;;;12.50;;
19414;SDS011;9843;48.882;12.592;2023-03-12T02:34:33;14.67;;;11.87;;
19414;SDS011;9843;48.882;12.592;2023-03-12T02:37:00;13.90;;;11.00;;
19414;SDS011;9843;48.882;12.592;2023-03-12T02:39:27;13.20;;;11.77;;
19414;SDS011;9843;48.882;12.592;2023-03-12T02:41:55;13.23;;;11.90;;
19414;SDS011;9843;48.882;12.592;2023-03-12T02:44:24;12.33;;;11.10;;
19414;SDS011;9843;48.882;12.592;2023-03-12T02:46:52;14.83;;;10.30;;
19414;SDS011;9843;48.882;12.592;2023-03-12T02:49:21;14.60;;;11.03;;
19414;SDS011;9843;48.882;12.592;2023-03-12T02:51:49;20.43;;;12.50;;
19414;SDS011;9843;48.882;12.592;2023-03-12T02:54:17;14.07;;;10.93;;
19414;SDS011;9843;48.882;12.592;2023-03-12T02:56:45;11.57;;;10.20;;
19414;SDS011;9843;48.882;12.592;2023-03-12T02:59:12;12.47;;;10.33;;
19414;SDS011;9843;48.882;12.592;2023-03-12T03:01:40;13.93;;;10.10;;
19414;SDS011;9843;48.882;12.592;2023-03-12T03:04:08;12.20;;;11.00;;
19414;SDS011;9843;48.882;12.592;2023-03-12T03:06:36;12.83;;;11.47;;
19414;SDS011;9843;48.882;12.592;2023-03-12T03:09:04;13.07;;;11.40;;
19414;SDS011;9843;48.882;12.592;2023-03-12T03:11:31;13.07;;;11.70;;
19414;SDS011;9843;48.882;12.592;2023-03-12T03:13:58;13.53;;;11.97;;
19414;SDS011;9843;48.882;12.592;2023-03-12T03:16:27;15.30;;;12.27;;
19414;SDS011;9843;48.882;12.592;2023-03-12T03:18:55;11.93;;;10.47;;
19414;SDS011;9843;48.882;12.592;2023-03-12T03:21:22;11.73;;;10.53;;
19414;SDS011;9843;48.882;12.592;2023-03-12T03:23:50;11.17;;;10.00;;
19414;SDS011;9843;48.882;12.592;2023-03-12T03:26:19;12.77;;;11.47;;
19414;SDS011;9843;48.882;12.592;2023-03-12T03:28:46;11.23;;;10.17;;
19414;SDS011;9843;48.882;12.592;2023-03-12T03:31:13;14.33;;;11.47;;
19414;SDS011;9843;48.882;12.592;2023-03-12T03:33:40;11.10;;;10.07;;
19414;SDS011;9843;48.882;12.592;2023-03-12T03:36:09;13.07;;;10.00;;
19414;SDS011;9843;48.882;12.592;2023-03-12T03:38:38;10.77;;;9.87;;
19414;SDS011;9843;48.882;12.592;2023-03-12T03:41:06;11.40;;;10.17;;
19414;SDS011;9843;48.882;12.592;2023-03-12T03:43:33;14.73;;;11.93;;
19414;SDS011;9843;48.882;12.592;2023-03-12T03:46:00;12.10;;;10.47;;
19414;SDS011;9843;48.882;12.592;2023-03-12T03:48:28;12.93;;;11.57;;
19414;SDS011;9843;48.882;12.592;2023-03-12T03:50:58;10.33;;;9.43;;
19414;SDS011;9843;48.882;12.592;2023-03-12T03:53:26;11.60;;;10.43;;
19414;SDS011;9843;48.882;12.592;2023-03-12T03:55:53;11.97;;;10.77;;
19414;SDS011;9843;48.882;12.592;2023-03-12T03:58:21;15.60;;;13.90;;
19414;SDS011;9843;48.882;12.592;2023-03-12T04:00:48;19.50;;;10.73;;
19414;SDS011;9843;48.882;12.592;2023-03-12T04:03:15;13.07;;;11.63;;
19414;SDS011;9843;48.882;12.592;2023-03-12T04:05:42;13.40;;;12.00;;
19414;SDS011;9843;48.882;12.592;2023-03-12T04:08:10;15.63;;;12.30;;
19414;SDS011;9843;48.882;12.592;2023-03-12T04:10:38;16.20;;;11.90;;
19414;SDS011;9843;48.882;12.592;2023-03-12T04:13:05;17.97;;;11.93;;
19414;SDS011;9843;48.882;12.592;2023-03-12T04:15:33;15.47;;;11.30;;
19414;SDS011;9843;48.882;12.592;2023-03-12T04:18:00;14.87;;;12.80;;
19414;SDS011;9843;48.882;12.592;2023-03-12T04:20:27;13.33;;;11.93;;
19414;SDS011;9843;48.882;12.592;2023-03-12T04:22:54;15.73;;;12.97;;
19414;SDS011;9843;48.882;12.592;2023-03-12T04:25:22;13.00;;;11.03;;
19414;SDS011;9843;48.882;12.592;2023-03-12T04:27:50;12.43;;;11.13;;
19414;SDS011;9843;48.882;12.592;2023-03-12T04:30:17;16.20;;;12.63;;
19414;SDS011;9843;48.882;12.592;2023-03-12T04:32:45;14.03;;;12.40;;
19414;SDS011;9843;48.882;12.592;2023-03-12T04:35:12;15.13;;;12.10;;
19414;SDS011;9843;48.882;12.592;2023-03-12T04:37:39;21.43;;;12.37;;
19414;SDS011;9843;48.882;12.592;2023-03-12T04:40:06;15.03;;;12.00;;
19414;SDS011;9843;48.882;12.592;2023-03-12T04:42:33;14.77;;;13.20;;
19414;SDS011;9843;48.882;12.592;2023-03-12T04:45:02;14.97;;;12.17;;
19414;SDS011;9843;48.882;12.592;2023-03-12T04:47:30;17.47;;;13.30;;
19414;SDS011;9843;48.882;12.592;2023-03-12T04:49:57;14.83;;;11.83;;
19414;SDS011;9843;48.882;12.592;2023-03-12T04:52:24;14.50;;;10.67;;
19414;SDS011;9843;48.882;12.592;2023-03-12T04:54:51;12.17;;;10.87;;
19414;SDS011;9843;48.882;12.592;2023-03-12T04:57:19;12.40;;;11.10;;
19414;SDS011;9843;48.882;12.592;2023-03-12T04:59:46;14.47;;;12.67;;
19414;SDS011;9843;48.882;12.592;2023-03-12T05:02:14;12.03;;;10.87;;
19414;SDS011;9843;48.882;12.592;2023-03-12T05:04:41;15.20;;;12.07;;
19414;SDS011;9843;48.882;12.592;2023-03-12T05:07:08;17.40;;;10.63;;
19414;SDS011;9843;48.882;12.592;2023-03-12T05:09:35;12.37;;;10.13;;
19414;SDS011;9843;48.882;12.592;2023-03-12T05:12:03;13.87;;;11.60;;
19414;SDS011;9843;48.882;12.592;2023-03-12T05:14:30;14.97;;;11.33;;
19414;SDS011;9843;48.882;12.592;2023-03-12T05:16:57;14.73;;;11.07;;
19414;SDS011;9843;48.882;12.592;2023-03-12T05:19:25;13.43;;;10.87;;
19414;SDS011;9843;48.882;12.592;2023-03-12T05:21:52;13.17;;;10.23;;
19414;SDS011;9843;48.882;12.592;2023-03-12T05:24:19;13.17;;;10.77;;
19414;SDS011;9843;48.882;12.592;2023-03-12T05:26:46;11.87;;;9.43;;
19414;SDS011;9843;48.882;12.592;2023-03-12T05:29:14;10.77;;;9.17;;
19414;SDS011;9843;48.882;12.592;2023-03-12T05:31:41;12.30;;;9.30;;
19414;SDS011;9843;48.882;12.592;2023-03-12T05:34:09;10.63;;;9.53;;
19414;SDS011;9843;48.882;12.592;2023-03-12T05:36:38;10.20;;;9.17;;
19414;SDS011;9843;48.882;12.592;2023-03-12T05:39:05;8.17;;;7.37;;
19414;SDS011;9843;48.882;12.592;2023-03-12T05:41:32;8.17;;;7.43;;
19414;SDS011;9843;48.882;12.592;2023-03-12T05:43:59;15.10;;;9.83;;
19414;SDS011;9843;48.882;12.592;2023-03-12T05:46:26;10.33;;;8.90;;
19414;SDS011;9843;48.882;12.592;2023-03-12T05:48:53;9.33;;;8.43;;
19414;SDS011;9843;48.882;12.592;2023-03-12T05:51:20;8.27;;;7.57;;
19414;SDS011;9843;48.882;12.592;2023-03-12T05:53:49;13.93;;;9.57;;
19414;SDS011;9843;48.882;12.592;2023-03-12T05:56:16;12.43;;;9.30;;
19414;SDS011;9843;48.882;12.592;2023-03-12T05:58:43;11.07;;;9.53;;
19414;SDS011;9843;48.882;12.592;2023-03-12T06:01:11;12.37;;;9.27;;
19414;SDS011;9843;48.882;12.592;2023-03-12T06:03:38;13.17;;;8.73;;
19414;SDS011;9843;48.882;12.592;2023-03-12T06:06:06;10.63;;;9.53;;
19414;SDS011;9843;48.882;12.592;2023-03-12T06:08:33;8.93;;;7.67;;
19414;SDS011;9843;48.882;12.592;2023-03-12T06:11:02;11.90;;;9.23;;
19414;SDS011;9843;48.882;12.592;2023-03-12T06:13:29;13.43;;;9.07;;
19414;SDS011;9843;48.882;12.592;2023-03-12T06:16:00;12.60;;;10.57;;
19414;SDS011;9843;48.882;12.592;2023-03-12T06:18:28;11.97;;;10.80;;
19414;SDS011;9843;48.882;12.592;2023-03-12T06:20:55;10.53;;;9.43;;
19414;SDS011;9843;48.882;12.592;2023-03-12T06:23:22;9.10;;;8.30;;
19414;SDS011;9843;48.882;12.592;2023-03-12T06:25:49;8.97;;;8.30;;
19414;SDS011;9843;48.882;12.592;2023-03-12T06:28:17;9.67;;;8.63;;
19414;SDS011;9843;48.882;12.592;2023-03-12T06:30:44;10.43;;;8.87;;
19414;SDS011;9843;48.882;12.592;2023-03-12T06:33:11;12.80;;;8.97;;
19414;SDS011;9843;48.882;12.592;2023-03-12T06:35:38;9.30;;;8.40;;
19414;SDS011;9843;48.882;12.592;2023-03-12T06:38:06;9.00;;;8.10;;
19414;SDS011;9843;48.882;12.592;2023-03-12T06:40:33;9.93;;;8.93;;
19414;SDS011;9843;48.882;12.592;2023-03-12T06:43:00;9.77;;;7.87;;
19414;SDS011;9843;48.882;12.592;2023-03-12T06:45:28;12.80;;;9.37;;
19414;SDS011;9843;48.882;12.592;2023-03-12T06:47:55;9.57;;;8.67;;
19414;SDS011;9843;48.882;12.592;2023-03-12T06:50:22;11.50;;;10.30;;
19414;SDS011;9843;48.882;12.592;2023-03-12T06:52:49;10.27;;;8.43;;
19414;SDS011;9843;48.882;12.592;2023-03-12T06:55:16;10.23;;;9.20;;
19414;SDS011;9843;48.882;12.592;2023-03-12T06:57:44;10.60;;;9.17;;
19414;SDS011;9843;48.882;12.592;2023-03-12T07:00:11;9.47;;;8.47;;
19414;SDS011;9843;48.882;12.592;2023-03-12T07:02:40;9.50;;;8.60;;
19414;SDS011;9843;48.882;12.592;2023-03-12T07:05:07;8.93;;;8.03;;
19414;SDS011;9843;48.882;12.592;2023-03-12T07:07:35;11.20;;;9.93;;
19414;SDS011;9843;48.882;12.592;2023-03-12T07:10:03;9.53;;;8.70;;
19414;SDS011;9843;48.882;12.592;2023-03-12T07:12:30;9.00;;;7.73;;
19414;SDS011;9843;48.882;12.592;2023-03-12T07:14:57;8.30;;;7.47;;
19414;SDS011;9843;48.882;12.592;2023-03-12T07:17:25;8.63;;;7.77;;
19414;SDS011;9843;48.882;12.592;2023-03-12T07:19:53;9.37;;;7.47;;
19414;SDS011;9843;48.882;12.592;2023-03-12T07:22:20;9.33;;;7.80;;
19414;SDS011;9843;48.882;12.592;2023-03-12T07:24:47;12.40;;;10.93;;
19414;SDS011;9843;48.882;12.592;2023-03-12T07:27:15;11.00;;;8.90;;
19414;SDS011;9843;48.882;12.592;2023-03-12T07:29:42;13.00;;;11.67;;
19414;SDS011;9843;48.882;12.592;2023-03-12T07:32:09;9.53;;;8.73;;
19414;SDS011;9843;48.882;12.592;2023-03-12T07:34:36;9.57;;;8.67;;
19414;SDS011;9843;48.882;12.592;2023-03-12T07:37:05;10.97;;;9.93;;
19414;SDS011;9843;48.882;12.592;2023-03-12T07:39:32;12.47;;;10.10;;
19414;SDS011;9843;48.882;12.592;2023-03-12T07:41:59;10.67;;;9.57;;
19414;SDS011;9843;48.882;12.592;2023-03-12T07:44:27;11.03;;;9.90;;
19414;SDS011;9843;48.882;12.592;2023-03-12T07:46:54;9.60;;;8.70;;
19414;SDS011;9843;48.882;12.592;2023-03-12T07:49:21;12.27;;;8.13;;
19414;SDS011;9843;48.882;12.592;2023-03-12T07:51:48;11.00;;;10.10;;
19414;SDS011;9843;48.882;12.592;2023-03-12T07:54:16;10.80;;;9.17;;
19414;SDS011;9843;48.882;12.592;2023-03-12T07:56:43;10.47;;;9.53;;
19414;SDS011;9843;48.882;12.592;2023-03-12T07:59:10;12.30;;;8.70;;
19414;SDS011;9843;48.882;12.592;2023-03-12T08:01:37;11.30;;;7.50;;
19414;SDS011;9843;48.882;12.592;2023-03-12T08:04:04;12.13;;;9.23;;
19414;SDS011;9843;48.882;12.592;2023-03-12T08:06:31;9.97;;;8.30;;
19414;SDS011;9843;48.882;12.592;2023-03-12T08:08:58;8.63;;;7.63;;
19414;SDS011;9843;48.882;12.592;2023-03-12T08:11:28;10.07;;;6.83;;
19414;SDS011;9843;48.882;12.592;2023-03-12T08:13:57;8.83;;;7.67;;
19414;SDS011;9843;48.882;12.592;2023-03-12T08:16:24;11.97;;;7.30;;
19414;SDS011;9843;48.882;12.592;2023-03-12T08:18:51;10.47;;;8.67;;
19414;SDS011;9843;48.882;12.592;2023-03-12T08:21:18;8.83;;;7.57;;
19414;SDS011;9843;48.882;12.592;2023-03-12T08:23:45;13.03;;;8.87;;
19414;SDS011;9843;48.882;12.592;2023-03-12T08:26:12;7.93;;;7.13;;
19414;SDS011;9843;48.882;12.592;2023-03-12T08:28:41;8.40;;;7.53;;
19414;SDS011;9843;48.882;12.592;2023-03-12T08:31:08;15.47;;;9.27;;
19414;SDS011;9843;48.882;12.592;2023-03-12T08:33:35;8.57;;;7.67;;
19414;SDS011;9843;48.882;12.592;2023-03-12T08:36:07;11.20;;;8.37;;
19414;SDS011;9843;48.882;12.592;2023-03-12T08:38:34;10.57;;;8.83;;
19414;SDS011;9843;48.882;12.592;2023-03-12T08:41:02;9.23;;;8.10;;
19414;SDS011;9843;48.882;12.592;2023-03-12T08:43:29;8.73;;;7.67;;
19414;SDS011;9843;48.882;12.592;2023-03-12T08:45:58;8.70;;;7.13;;
19414;SDS011;9843;48.882;12.592;2023-03-12T08:48:25;9.03;;;8.33;;
19414;SDS011;9843;48.882;12.592;2023-03-12T08:50:53;9.60;;;8.67;;
19414;SDS011;9843;48.882;12.592;2023-03-12T08:53:21;8.30;;;7.43;;
19414;SDS011;9843;48.882;12.592;2023-03-12T08:55:50;8.30;;;7.33;;
19414;SDS011;9843;48.882;12.592;2023-03-12T08:58:18;7.33;;;6.70;;
19414;SDS011;9843;48.882;12.592;2023-03-12T09:00:45;9.93;;;7.50;;
19414;SDS011;9843;48.882;12.592;2023-03-12T09:03:13;10.47;;;7.80;;
19414;SDS011;9843;48.882;12.592;2023-03-12T09:05:40;8.17;;;6.57;;
19414;SDS011;9843;48.882;12.592;2023-03-12T09:08:07;8.93;;;7.40;;
19414;SDS011;9843;48.882;12.592;2023-03-12T09:10:35;7.13;;;6.43;;
19414;SDS011;9843;48.882;12.592;2023-03-12T09:13:04;6.77;;;6.17;;
19414;SDS011;9843;48.882;12.592;2023-03-12T09:15:31;7.97;;;6.13;;
19414;SDS011;9843;48.882;12.592;2023-03-12T09:17:59;13.10;;;6.73;;
19414;SDS011;9843;48.882;12.592;2023-03-12T09:20:27;6.73;;;6.07;;
19414;SDS011;9843;48.882;12.592;2023-03-12T09:22:54;6.27;;;5.67;;
19414;SDS011;9843;48.882;12.592;2023-03-12T09:25:21;6.77;;;6.07;;
19414;SDS011;9843;48.882;12.592;2023-03-12T09:27:48;8.17;;;7.37;;
19414;SDS011;9843;48.882;12.592;2023-03-12T09:30:16;9.93;;;6.93;;
19414;SDS011;9843;48.882;12.592;2023-03-12T09:32:44;7.53;;;6.83;;
19414;SDS011;9843;48.882;12.592;2023-03-12T09:35:11;9.70;;;6.43;;
19414;SDS011;9843;48.882;12.592;2023-03-12T09:37:40;5.73;;;5.13;;
19414;SDS011;9843;48.882;12.592;2023-03-12T09:40:10;9.07;;;5.73;;
19414;SDS011;9843;48.882;12.592;2023-03-12T09:42:39;6.47;;;5.70;;
19414;SDS011;9843;48.882;12.592;2023-03-12T09:45:07;5.63;;;5.10;;
19414;SDS011;9843;48.882;12.592;2023-03-12T09:47:36;5.77;;;5.17;;
19414;SDS011;9843;48.882;12.592;2023-03-12T09:50:05;6.10;;;5.30;;
19414;SDS011;9843;48.882;12.592;2023-03-12T09:52:33;5.63;;;5.03;;
19414;SDS011;9843;48.882;12.592;2023-03-12T09:55:04;7.67;;;6.00;;
19414;SDS011;9843;48.882;12.592;2023-03-12T09:57:32;6.50;;;5.90;;
19414;SDS011;9843;48.882;12.592;2023-03-12T10:00:00;6.73;;;5.90;;
19414;SDS011;9843;48.882;12.592;2023-03-12T10:02:43;6.37;;;5.77;;
19414;SDS011;9843;48.882;12.592;2023-03-12T10:05:14;7.03;;;6.43;;
19414;SDS011;9843;48.882;12.592;2023-03-12T10:07:45;10.53;;;7.83;;
19414;SDS011;9843;48.882;12.592;2023-03-12T10:10:17;7.17;;;5.50;;
19414;SDS011;9843;48.882;12.592;2023-03-12T10:12:54;6.77;;;5.80;;
19414;SDS011;9843;48.882;12.592;2023-03-12T10:15:27;6.43;;;5.83;;
19414;SDS011;9843;48.882;12.592;2023-03-12T10:17:59;6.57;;;5.97;;
19414;SDS011;9843;48.882;12.592;2023-03-12T10:23:19;5.97;;;5.37;;
19414;SDS011;9843;48.882;12.592;2023-03-12T10:25:51;6.47;;;5.10;;
19414;SDS011;9843;48.882;12.592;2023-03-12T10:28:20;9.33;;;5.27;;
19414;SDS011;9843;48.882;12.592;2023-03-12T10:30:52;9.53;;;5.30;;
19414;SDS011;9843;48.882;12.592;2023-03-12T10:33:20;5.20;;;4.73;;
19414;SDS011;9843;48.882;12.592;2023-03-12T10:35:49;6.30;;;4.70;;
19414;SDS011;9843;48.882;12.592;2023-03-12T10:38:19;6.27;;;4.73;;
19414;SDS011;9843;48.882;12.592;2023-03-12T10:40:47;5.20;;;4.70;;
19414;SDS011;9843;48.882;12.592;2023-03-12T10:43:16;6.07;;;4.90;;
19414;SDS011;9843;48.882;12.592;2023-03-12T10:45:43;5.97;;;4.97;;
19414;SDS011;9843;48.882;12.592;2023-03-12T10:48:17;4.80;;;4.40;;
19414;SDS011;9843;48.882;12.592;2023-03-12T10:50:45;5.80;;;5.30;;
19414;SDS011;9843;48.882;12.592;2023-03-12T10:53:26;5.67;;;4.57;;
19414;SDS011;9843;48.882;12.592;2023-03-12T10:56:02;7.90;;;4.10;;
19414;SDS011;9843;48.882;12.592;2023-03-12T10:58:35;5.03;;;4.10;;
19414;SDS011;9843;48.882;12.592;2023-03-12T11:01:02;8.17;;;6.30;;
19414;SDS011;9843;48.882;12.592;2023-03-12T11:03:30;9.77;;;6.27;;
19414;SDS011;9843;48.882;12.592;2023-03-12T11:05:58;6.40;;;4.67;;
19414;SDS011;9843;48.882;12.592;2023-03-12T11:08:27;9.40;;;6.40;;
19414;SDS011;9843;48.882;12.592;2023-03-12T11:10:54;4.70;;;4.30;;
19414;SDS011;9843;48.882;12.592;2023-03-12T11:13:23;5.80;;;4.53;;
19414;SDS011;9843;48.882;12.592;2023-03-12T11:15:52;7.40;;;4.57;;
19414;SDS011;9843;48.882;12.592;2023-03-12T11:18:29;5.03;;;4.17;;
19414;SDS011;9843;48.882;12.592;2023-03-12T11:21:10;4.80;;;4.40;;
19414;SDS011;9843;48.882;12.592;2023-03-12T11:23:39;12.37;;;4.20;;
19414;SDS011;9843;48.882;12.592;2023-03-12T11:26:13;3.63;;;3.33;;
19414;SDS011;9843;48.882;12.592;2023-03-12T11:28:43;3.57;;;3.33;;
19414;SDS011;9843;48.882;12.592;2023-03-12T11:31:14;4.07;;;3.40;;
19414;SDS011;9843;48.882;12.592;2023-03-12T11:33:44;5.70;;;5.20;;
19414;SDS011;9843;48.882;12.592;2023-03-12T11:36:15;7.80;;;4.53;;
19414;SDS011;9843;48.882;12.592;2023-03-12T11:38:45;6.33;;;5.67;;
19414;SDS011;9843;48.882;12.592;2023-03-12T11:41:20;6.37;;;5.70;;
19414;SDS011;9843;48.882;12.592;2023-03-12T11:43:53;8.70;;;6.03;;
19414;SDS011;9843;48.882;12.592;2023-03-12T11:46:28;5.80;;;4.53;;
19414;SDS011;9843;48.882;12.592;2023-03-12T11:49:04;12.23;;;8.87;;
19414;SDS011;9843;48.882;12.592;2023-03-12T11:51:36;10.00;;;7.47;;
19414;SDS011;9843;48.882;12.592;2023-03-12T11:54:23;13.97;;;9.20;;
19414;SDS011;9843;48.882;12.592;2023-03-12T11:56:51;16.10;;;10.27;;
19414;SDS011;9843;48.882;12.592;2023-03-12T11:59:38;11.53;;;7.57;;
19414;SDS011;9843;48.882;12.592;2023-03-12T12:02:17;8.93;;;8.03;;
19414;SDS011;9843;48.882;12.592;2023-03-12T12:07:35;10.03;;;7.70;;
19414;SDS011;9843;48.882;12.592;2023-03-12T12:10:06;8.60;;;7.50;;
19414;SDS011;9843;48.882;12.592;2023-03-12T12:12:44;8.97;;;7.37;;
19414;SDS011;9843;48.882;12.592;2023-03-12T12:15:17;8.00;;;7.20;;
19414;SDS011;9843;48.882;12.592;2023-03-12T12:17:50;8.43;;;7.47;;
19414;SDS011;9843;48.882;12.592;2023-03-12T12:20:24;10.33;;;8.43;;
19414;SDS011;9843;48.882;12.592;2023-03-12T12:22:56;10.73;;;7.77;;
19414;SDS011;9843;48.882;12.592;2023-03-12T12:25:28;11.90;;;8.53;;
19414;SDS011;9843;48.882;12.592;2023-03-12T12:28:04;9.43;;;8.07;;
19414;SDS011;9843;48.882;12.592;2023-03-12T12:30:37;10.50;;;7.73;;
19414;SDS011;9843;48.882;12.592;2023-03-12T12:33:11;7.83;;;6.03;;
19414;SDS011;9843;48.882;12.592;2023-03-12T12:35:43;15.17;;;8.37;;
19414;SDS011;9843;48.882;12.592;2023-03-12T12:38:12;11.23;;;9.57;;
19414;SDS011;9843;48.882;12.592;2023-03-12T12:40:40;11.27;;;8.13;;
19414;SDS011;9843;48.882;12.592;2023-03-12T12:43:16;9.97;;;8.93;;
19414;SDS011;9843;48.882;12.592;2023-03-12T12:45:48;8.67;;;7.77;;
19414;SDS011;9843;48.882;12.592;2023-03-12T12:48:19;10.47;;;9.20;;
19414;SDS011;9843;48.882;12.592;2023-03-12T12:50:47;10.13;;;9.23;;
19414;SDS011;9843;48.882;12.592;2023-03-12T12:53:18;14.13;;;10.50;;
19414;SDS011;9843;48.882;12.592;2023-03-12T12:55:48;9.10;;;8.20;;
19414;SDS011;9843;48.882;12.592;2023-03-12T12:58:19;9.77;;;8.87;;
19414;SDS011;9843;48.882;12.592;2023-03-12T13:00:48;10.27;;;8.83;;
19414;SDS011;9843;48.882;12.592;2023-03-12T13:03:19;14.97;;;8.83;;
19414;SDS011;9843;48.882;12.592;2023-03-12T13:05:52;9.20;;;7.97;;
19414;SDS011;9843;48.882;12.592;2023-03-12T13:08:31;13.73;;;10.60;;
19414;SDS011;9843;48.882;12.592;2023-03-12T13:10:59;10.63;;;9.50;;
19414;SDS011;9843;48.882;12.592;2023-03-12T13:13:29;9.60;;;8.77;;
19414;SDS011;9843;48.882;12.592;2023-03-12T13:16:15;11.80;;;9.70;;
19414;SDS011;9843;48.882;12.592;2023-03-12T13:18:55;9.90;;;8.87;;
19414;SDS011;9843;48.882;12.592;2023-03-12T13:21:23;10.77;;;9.67;;
19414;SDS011;9843;48.882;12.592;2023-03-12T13:23:54;9.77;;;8.87;;
19414;SDS011;9843;48.882;12.592;2023-03-12T13:26:25;12.63;;;9.37;;
19414;SDS011;9843;48.882;12.592;2023-03-12T13:28:57;12.50;;;11.30;;
19414;SDS011;9843;48.882;12.592;2023-03-12T13:31:32;17.97;;;9.37;;
19414;SDS011;9843;48.882;12.592;2023-03-12T13:34:27;17.30;;;11.43;;
19414;SDS011;9843;48.882;12.592;2023-03-12T13:36:56;14.67;;;10.77;;
19414;SDS011;9843;48.882;12.592;2023-03-12T13:39:27;18.50;;;10.10;;
19414;SDS011;9843;48.882;12.592;2023-03-12T13:41:56;12.97;;;10.30;;
19414;SDS011;9843;48.882;12.592;2023-03-12T13:44:30;11.87;;;10.67;;
19414;SDS011;9843;48.882;12.592;2023-03-12T13:46:58;13.90;;;10.37;;
19414;SDS011;9843;48.882;12.592;2023-03-12T13:49:27;13.27;;;9.70;;
19414;SDS011;9843;48.882;12.592;2023-03-12T13:52:01;12.67;;;11.10;;
19414;SDS011;9843;48.882;12.592;2023-03-12T13:54:36;11.80;;;10.17;;
19414;SDS011;9843;48.882;12.592;2023-03-12T13:57:09;14.70;;;12.07;;
19414;SDS011;9843;48.882;12.592;2023-03-12T13:59:41;13.70;;;12.30;;
19414;SDS011;9843;48.882;12.592;2023-03-12T14:02:12;13.57;;;11.03;;
19414;SDS011;9843;48.882;12.592;2023-03-12T14:04:43;14.27;;;12.40;;
19414;SDS011;9843;48.882;12.592;2023-03-12T14:07:20;17.20;;;13.53;;
19414;SDS011;9843;48.882;12.592;2023-03-12T14:09:53;16.63;;;13.37;;
19414;SDS011;9843;48.882;12.592;2023-03-12T14:12:23;15.70;;;14.10;;
19414;SDS011;9843;48.882;12.592;2023-03-12T14:17:50;16.20;;;14.50;;
19414;SDS011;9843;48.882;12.592;2023-03-12T14:20:20;16.43;;;13.63;;
19414;SDS011;9843;48.882;12.592;2023-03-12T14:22:48;17.10;;;14.97;;
19414;SDS011;9843;48.882;12.592;2023-03-12T14:25:20;22.07;;;17.37;;
19414;SDS011;9843;48.882;12.592;2023-03-12T14:27:48;20.13;;;14.73;;
19414;SDS011;9843;48.882;12.592;2023-03-12T14:30:18;23.27;;;17.93;;
19414;SDS011;9843;48.882;12.592;2023-03-12T14:32:46;28.43;;;16.77;;
19414;SDS011;9843;48.882;12.592;2023-03-12T14:35:16;25.83;;;18.43;;
19414;SDS011;9843;48.882;12.592;2023-03-12T14:37:48;34.43;;;17.57;;
19414;SDS011;9843;48.882;12.592;2023-03-12T14:40:21;20.37;;;16.73;;
19414;SDS011;9843;48.882;12.592;2023-03-12T14:42:49;23.20;;;16.73;;
19414;SDS011;9843;48.882;12.592;2023-03-12T14:45:17;24.30;;;17.30;;
19414;SDS011;9843;48.882;12.592;2023-03-12T14:47:45;28.33;;;19.33;;
19414;SDS011;9843;48.882;12.592;2023-03-12T14:50:15;22.97;;;17.67;;
19414;SDS011;9843;48.882;12.592;2023-03-12T14:52:43;27.43;;;18.87;;